Sichem Singapore — 9HA4414 — position and weather

sailwx.info

Track history (hours):
 
Tides and Currents Weather Stations Pressure Air Temp Water Temp Dewpoint Dewpoint Depression Visibility Wind Speed Wind Dir Waves Ship Positions

Sichem Singapore

Last reported at 2018-Jul-16 23:20 UTC. Time now 2018-Jul-17 05:52 UTC.
Position N 36°23' E 014°56'.

Length 128 m; draft 8.7 m.

Type: Ship. MMSI: 249880000.

Date/timePositionNaut miles runAvg speedWind from/ knotsBaromVisibWave heightAir tempDewpointWater temp
2018-Jul-16 23:20N 36°23' E 014°56'513.2
2018-Jul-16 23:00N 36°24' E 014°50'613.1
2018-Jul-16 22:30N 36°25' E 014°43'612.9
2018-Jul-16 22:00N 36°27' E 014°35'712.7
2018-Jul-16 21:29N 36°30' E 014°27'612.6
2018-Jul-16 21:00N 36°32' E 014°20'612.6
2018-Jul-16 20:30N 36°34' E 014°13'612.5
2018-Jul-16 19:59N 36°36' E 014°05'612.3
2018-Jul-16 19:30N 36°37' E 013°58'612.2
2018-Jul-16 19:00N 36°39' E 013°51'612.1
2018-Jul-16 18:30N 36°41' E 013°43'612.1
2018-Jul-16 18:00N 36°42' E 013°36'612.1
2018-Jul-16 17:30N 36°44' E 013°29'611.9
2018-Jul-16 17:00N 36°46' E 013°22'611.9
2018-Jul-16 16:30N 36°47' E 013°15'612.1
2018-Jul-16 16:00N 36°49' E 013°07'612.2
2018-Jul-16 15:30N 36°51' E 013°00'612.0
2018-Jul-16 15:00N 36°53' E 012°53'712.5
2018-Jul-16 14:29N 36°56' E 012°45'612.8
2018-Jul-16 14:00N 36°58' E 012°38'612.2
2018-Jul-16 13:30N 36°59' E 012°31'611.9
2018-Jul-16 13:00N 37°01' E 012°24'612.1
2018-Jul-16 12:30N 37°03' E 012°17'612.2
2018-Jul-16 12:00N 37°05' E 012°09'612.4
2018-Jul-16 11:30N 37°07' E 012°02'612.4
2018-Jul-16 11:00N 37°09' E 011°55'14712.4
2018-Jul-15 23:09N 38°16' E 009°09'412.4
2018-Jul-15 22:51N 38°18' E 009°05'512.2
2018-Jul-15 22:26N 38°20' E 008°60'19012.5
2018-Jul-15 07:14N 39°54' E 005°27'912.7
2018-Jul-15 06:32N 39°58' E 005°16'012.3
2018-Jul-15 06:30N 39°58' E 005°16'2612.2
2018-Jul-15 04:20N 40°11' E 004°46'412.2
2018-Jul-15 04:00N 40°13' E 004°41'612.2
2018-Jul-15 03:30N 40°16' E 004°34'612.1
2018-Jul-15 02:58N 40°19' E 004°27'612.1
2018-Jul-15 02:30N 40°21' E 004°21'612.2
2018-Jul-15 02:00N 40°25' E 004°13'612.2
2018-Jul-15 01:30N 40°28' E 004°07'812.2
2018-Jul-15 00:50N 40°32' E 003°58'412.1
2018-Jul-15 00:30N 40°34' E 003°53'612.1
2018-Jul-14 23:59N 40°37' E 003°46'1412.1
2018-Jul-14 22:49N 40°44' E 003°30'412.1
2018-Jul-14 22:29N 40°46' E 003°25'612.2
2018-Jul-14 22:00N 40°48' E 003°18'612.2
2018-Jul-14 21:30N 40°51' E 003°11'612.2
2018-Jul-14 21:00N 40°54' E 003°04'612.3
2018-Jul-14 20:30N 40°57' E 002°57'612.3
2018-Jul-14 20:00N 40°60' E 002°49'612.4
2018-Jul-14 19:30N 41°02' E 002°42'612.3
2018-Jul-14 19:00N 41°05' E 002°35'612.3
2018-Jul-14 18:30N 41°09' E 002°28'612.3
2018-Jul-14 18:00N 41°12' E 002°21'612.4
2018-Jul-14 17:30N 41°15' E 002°14'510.7
2018-Jul-14 17:00N 41°20' E 002°10'1 0.0
2018-Jul-13 09:45N 41°20' E 002°09'0 1.7
2018-Jul-13 09:30N 41°21' E 002°09'2 4.2
2018-Jul-13 09:00N 41°19' E 002°11'1 2.0
2018-Jul-13 08:30N 41°20' E 002°11'0 0.0
2018-Jul-13 08:00N 41°20' E 002°11'0 0.0
2018-Jul-13 07:30N 41°20' E 002°11'0 0.0
2018-Jul-13 07:00N 41°20' E 002°11'0 0.0
2018-Jul-13 06:30N 41°20' E 002°11'0 0.0
2018-Jul-13 06:00N 41°20' E 002°11'0 0.0
2018-Jul-13 05:30N 41°20' E 002°11'0 0.0
2018-Jul-13 05:00N 41°20' E 002°11'0 0.0
2018-Jul-13 04:30N 41°20' E 002°11'0 0.0
2018-Jul-13 04:00N 41°20' E 002°11'0 0.0
2018-Jul-13 03:30N 41°20' E 002°11'0 0.0
2018-Jul-13 03:00N 41°20' E 002°11'0 0.0
2018-Jul-13 02:30N 41°20' E 002°11'0 0.0
2018-Jul-13 02:00N 41°20' E 002°11'0 0.0
2018-Jul-13 01:30N 41°20' E 002°11'0 0.0
2018-Jul-13 01:00N 41°20' E 002°11'0 0.0
2018-Jul-13 00:30N 41°20' E 002°11'0 0.0
2018-Jul-12 23:57N 41°20' E 002°11'0 0.0
2018-Jul-12 23:30N 41°20' E 002°11'0 0.0
2018-Jul-12 23:00N 41°20' E 002°11'0 0.0
2018-Jul-12 22:30N 41°20' E 002°11'0 0.0
2018-Jul-12 22:00N 41°20' E 002°11'0 0.0
2018-Jul-12 21:27N 41°20' E 002°11'0 0.0
2018-Jul-12 20:57N 41°20' E 002°11'0 0.0
2018-Jul-12 20:30N 41°20' E 002°11'0 0.0
2018-Jul-12 19:57N 41°20' E 002°11'0 0.0
2018-Jul-12 19:30N 41°20' E 002°11'0 0.0
2018-Jul-12 19:00N 41°20' E 002°11'0 0.0
2018-Jul-12 18:30N 41°20' E 002°11'0 0.0
2018-Jul-12 18:00N 41°20' E 002°11'0 0.0
2018-Jul-12 17:30N 41°20' E 002°11'0 0.0
2018-Jul-12 17:00N 41°20' E 002°11'0 0.0
2018-Jul-12 16:30N 41°20' E 002°11'0 0.0
2018-Jul-12 15:57N 41°20' E 002°11'0 0.0
2018-Jul-12 15:30N 41°20' E 002°11'0 0.1
2018-Jul-12 15:00N 41°20' E 002°11'0 0.0
2018-Jul-12 14:30N 41°20' E 002°11'0 0.0
2018-Jul-12 14:00N 41°20' E 002°11'0 0.0
2018-Jul-12 13:30N 41°20' E 002°11'0 0.0
2018-Jul-12 13:00N 41°20' E 002°11'0 0.0
2018-Jul-12 12:30N 41°20' E 002°11'0 0.0
2018-Jul-12 12:00N 41°20' E 002°11'0 0.0
2018-Jul-12 11:27N 41°20' E 002°11'0 0.0
2018-Jul-12 11:00N 41°20' E 002°11'0 0.0
2018-Jul-12 10:30N 41°20' E 002°11'0 0.0
2018-Jul-12 10:00N 41°20' E 002°11'0 0.0
2018-Jul-12 09:30N 41°20' E 002°11'0 0.0
2018-Jul-12 09:00N 41°20' E 002°11'0 0.0
2018-Jul-12 08:27N 41°20' E 002°11'0 0.0
2018-Jul-12 08:00N 41°20' E 002°11'0 0.0
2018-Jul-12 07:30N 41°20' E 002°11'0 0.0
2018-Jul-12 07:00N 41°20' E 002°11'0 0.0
2018-Jul-12 06:30N 41°20' E 002°11'0 0.0
2018-Jul-12 06:00N 41°20' E 002°11'0 0.0
2018-Jul-12 05:30N 41°20' E 002°11'0 0.0
2018-Jul-12 05:00N 41°20' E 002°11'0 0.0
2018-Jul-12 04:30N 41°20' E 002°11'0 0.0
2018-Jul-12 04:00N 41°20' E 002°11'0 0.0
2018-Jul-12 03:30N 41°20' E 002°11'0 0.0
2018-Jul-12 02:57N 41°20' E 002°11'0 0.0
2018-Jul-12 02:30N 41°20' E 002°11'0 0.0
2018-Jul-12 02:00N 41°20' E 002°11'0 0.0
2018-Jul-12 01:30N 41°20' E 002°11'0 0.0
2018-Jul-12 01:00N 41°20' E 002°11'0 0.0
2018-Jul-12 00:30N 41°20' E 002°11'0 0.0
2018-Jul-12 00:00N 41°20' E 002°11'0 0.0
2018-Jul-11 23:30N 41°20' E 002°11'0 0.1
2018-Jul-11 23:00N 41°20' E 002°11'0 0.0
2018-Jul-11 22:30N 41°20' E 002°11'0 0.0
2018-Jul-11 22:00N 41°20' E 002°11'0 0.0
2018-Jul-11 21:30N 41°20' E 002°11'0 0.0
2018-Jul-11 21:00N 41°20' E 002°11'0 0.0
2018-Jul-11 20:30N 41°20' E 002°11'0 0.0
2018-Jul-11 20:00N 41°20' E 002°11'0 0.2
2018-Jul-11 19:30N 41°20' E 002°12'0 0.2
2018-Jul-11 19:00N 41°20' E 002°12'0 0.1
2018-Jul-11 18:30N 41°20' E 002°12'0 0.1
2018-Jul-11 18:00N 41°20' E 002°12'0 0.1
2018-Jul-11 17:24N 41°20' E 002°11'0 0.1
2018-Jul-11 17:00N 41°20' E 002°11'0 0.1
2018-Jul-11 16:30N 41°20' E 002°11'0 0.1
2018-Jul-11 16:00N 41°20' E 002°11'0 0.1
2018-Jul-11 15:30N 41°20' E 002°11'0 0.0
2018-Jul-11 15:00N 41°20' E 002°11'0 0.1
2018-Jul-11 14:30N 41°20' E 002°11'0 0.0
2018-Jul-11 14:00N 41°20' E 002°11'0 0.1
2018-Jul-11 13:30N 41°20' E 002°11'0 0.1
2018-Jul-11 13:00N 41°20' E 002°11'0 0.0
2018-Jul-11 12:30N 41°20' E 002°11'0 0.0
2018-Jul-11 12:00N 41°20' E 002°11'0 0.1
2018-Jul-11 11:30N 41°20' E 002°11'0 0.0
2018-Jul-11 10:57N 41°20' E 002°11'0 0.1
2018-Jul-11 10:30N 41°20' E 002°11'0 0.0
2018-Jul-11 10:00N 41°20' E 002°11'0 0.0
2018-Jul-11 09:27N 41°20' E 002°11'0 0.0
2018-Jul-11 09:00N 41°20' E 002°11'0 0.0
2018-Jul-11 08:30N 41°20' E 002°11'0 0.0
2018-Jul-11 08:00N 41°20' E 002°11'0 0.0
2018-Jul-11 07:30N 41°20' E 002°11'0 0.0
2018-Jul-11 06:54N 41°20' E 002°11'0 0.0
2018-Jul-11 06:30N 41°20' E 002°11'0 0.0
2018-Jul-11 06:00N 41°20' E 002°11'0 0.0
2018-Jul-11 05:30N 41°20' E 002°11'0 0.0
2018-Jul-11 04:57N 41°20' E 002°11'0 0.0
2018-Jul-11 04:30N 41°20' E 002°11'0 0.0
2018-Jul-11 04:00N 41°20' E 002°11'0 0.0
2018-Jul-11 03:27N 41°20' E 002°11'0 0.0
2018-Jul-11 03:00N 41°20' E 002°11'0 0.1
2018-Jul-11 02:30N 41°20' E 002°11'0 0.1
2018-Jul-11 02:00N 41°20' E 002°12'0 0.0
2018-Jul-11 01:30N 41°20' E 002°12'0 0.0
2018-Jul-11 01:00N 41°20' E 002°12'0 0.0
2018-Jul-11 00:30N 41°20' E 002°12'0 0.0
2018-Jul-10 23:57N 41°20' E 002°12'0 0.0
2018-Jul-10 23:30N 41°20' E 002°12'0 0.0
2018-Jul-10 23:00N 41°20' E 002°12'0 0.1
2018-Jul-10 22:30N 41°20' E 002°12'0 0.0
2018-Jul-10 22:00N 41°20' E 002°12'0 0.0
2018-Jul-10 21:30N 41°20' E 002°12'0 0.0
2018-Jul-10 21:00N 41°20' E 002°12'0 0.0
2018-Jul-10 20:30N 41°20' E 002°12'0 0.0
2018-Jul-10 20:00N 41°20' E 002°12'0 0.0
2018-Jul-10 19:30N 41°20' E 002°12'0 0.0
2018-Jul-10 18:54N 41°20' E 002°12'0 0.0
2018-Jul-10 18:30N 41°20' E 002°12'0 0.0
2018-Jul-10 18:00N 41°20' E 002°12'0 0.0
2018-Jul-10 17:30N 41°20' E 002°12'0 0.0
2018-Jul-10 17:00N 41°20' E 002°12'0 0.0
2018-Jul-10 16:30N 41°20' E 002°12'0 0.0
2018-Jul-10 16:00N 41°20' E 002°12'0 0.0
2018-Jul-10 15:30N 41°20' E 002°12'0 0.0
2018-Jul-10 15:00N 41°20' E 002°12'0 0.0
2018-Jul-10 14:30N 41°20' E 002°12'0 0.0
2018-Jul-10 14:00N 41°20' E 002°12'0 0.0
2018-Jul-10 13:30N 41°20' E 002°12'0 0.0
2018-Jul-10 13:00N 41°20' E 002°12'0 0.0
2018-Jul-10 12:30N 41°20' E 002°12'0 0.0
2018-Jul-10 12:00N 41°20' E 002°12'0 0.0
2018-Jul-10 11:30N 41°20' E 002°12'0 0.0
2018-Jul-10 11:00N 41°20' E 002°12'0 0.0
2018-Jul-10 10:30N 41°20' E 002°12'0 0.0
2018-Jul-10 10:00N 41°20' E 002°12'0 0.0
2018-Jul-10 09:30N 41°20' E 002°11'0 0.0
2018-Jul-10 09:00N 41°20' E 002°11'0 0.1
2018-Jul-10 08:30N 41°20' E 002°11'0 0.1
2018-Jul-10 08:00N 41°20' E 002°11'0 0.0
2018-Jul-10 07:30N 41°20' E 002°11'0 0.0
2018-Jul-10 07:00N 41°20' E 002°11'0 0.0
2018-Jul-10 06:30N 41°20' E 002°11'0 0.0
2018-Jul-10 06:00N 41°20' E 002°11'0 0.0
2018-Jul-10 05:30N 41°20' E 002°11'0 0.5
2018-Jul-10 05:00N 41°20' E 002°11'3 6.9
2018-Jul-10 04:30N 41°17' E 002°14'510.6
2018-Jul-10 04:00N 41°14' E 002°20'712.5
2018-Jul-10 03:26N 41°11' E 002°28'4913.5
2018-Jul-09 23:47N 40°46' E 003°24'413.1
2018-Jul-09 23:30N 40°44' E 003°29'713.2
2018-Jul-09 23:00N 40°41' E 003°36'713.0
2018-Jul-09 22:30N 40°37' E 003°44'11213.0
2018-Jul-09 13:55N 39°44' E 005°52'  
Track history (hours):
 
Tides and Currents Weather Stations Pressure Air Temp Water Temp Dewpoint Dewpoint Depression Visibility Wind Speed Wind Dir Waves Ship Positions

Sichem Singapore

Last reported at 2018-Jul-16 23:20 UTC. Time now 2018-Jul-17 05:52 UTC.
Position N 36°23' E 014°56'.

Length 128 m; draft 8.7 m.

Type: Ship. MMSI: 249880000.

Date/timePositionNaut miles runAvg speedWind from/ knotsBaromVisibWave heightAir tempDewpointWater temp
2018-Jul-16 23:20N 36°23' E 014°56'513.2
2018-Jul-16 23:00N 36°24' E 014°50'613.1
2018-Jul-16 22:30N 36°25' E 014°43'612.9
2018-Jul-16 22:00N 36°27' E 014°35'712.7
2018-Jul-16 21:29N 36°30' E 014°27'612.6
2018-Jul-16 21:00N 36°32' E 014°20'612.6
2018-Jul-16 20:30N 36°34' E 014°13'612.5
2018-Jul-16 19:59N 36°36' E 014°05'612.3
2018-Jul-16 19:30N 36°37' E 013°58'612.2
2018-Jul-16 19:00N 36°39' E 013°51'612.1
2018-Jul-16 18:30N 36°41' E 013°43'612.1
2018-Jul-16 18:00N 36°42' E 013°36'612.1
2018-Jul-16 17:30N 36°44' E 013°29'611.9
2018-Jul-16 17:00N 36°46' E 013°22'611.9
2018-Jul-16 16:30N 36°47' E 013°15'612.1
2018-Jul-16 16:00N 36°49' E 013°07'612.2
2018-Jul-16 15:30N 36°51' E 013°00'612.0
2018-Jul-16 15:00N 36°53' E 012°53'712.5
2018-Jul-16 14:29N 36°56' E 012°45'612.8
2018-Jul-16 14:00N 36°58' E 012°38'612.2
2018-Jul-16 13:30N 36°59' E 012°31'611.9
2018-Jul-16 13:00N 37°01' E 012°24'612.1
2018-Jul-16 12:30N 37°03' E 012°17'612.2
2018-Jul-16 12:00N 37°05' E 012°09'612.4
2018-Jul-16 11:30N 37°07' E 012°02'612.4
2018-Jul-16 11:00N 37°09' E 011°55'14712.4
2018-Jul-15 23:09N 38°16' E 009°09'412.4
2018-Jul-15 22:51N 38°18' E 009°05'512.2
2018-Jul-15 22:26N 38°20' E 008°60'19012.5
2018-Jul-15 07:14N 39°54' E 005°27'912.7
2018-Jul-15 06:32N 39°58' E 005°16'012.3
2018-Jul-15 06:30N 39°58' E 005°16'2612.2
2018-Jul-15 04:20N 40°11' E 004°46'412.2
2018-Jul-15 04:00N 40°13' E 004°41'612.2
2018-Jul-15 03:30N 40°16' E 004°34'612.1
2018-Jul-15 02:58N 40°19' E 004°27'612.1
2018-Jul-15 02:30N 40°21' E 004°21'612.2
2018-Jul-15 02:00N 40°25' E 004°13'612.2
2018-Jul-15 01:30N 40°28' E 004°07'812.2
2018-Jul-15 00:50N 40°32' E 003°58'412.1
2018-Jul-15 00:30N 40°34' E 003°53'612.1
2018-Jul-14 23:59N 40°37' E 003°46'1412.1
2018-Jul-14 22:49N 40°44' E 003°30'412.1
2018-Jul-14 22:29N 40°46' E 003°25'612.2
2018-Jul-14 22:00N 40°48' E 003°18'612.2
2018-Jul-14 21:30N 40°51' E 003°11'612.2
2018-Jul-14 21:00N 40°54' E 003°04'612.3
2018-Jul-14 20:30N 40°57' E 002°57'612.3
2018-Jul-14 20:00N 40°60' E 002°49'612.4
2018-Jul-14 19:30N 41°02' E 002°42'612.3
2018-Jul-14 19:00N 41°05' E 002°35'612.3
2018-Jul-14 18:30N 41°09' E 002°28'612.3
2018-Jul-14 18:00N 41°12' E 002°21'612.4
2018-Jul-14 17:30N 41°15' E 002°14'510.7
2018-Jul-14 17:00N 41°20' E 002°10'1 0.0
2018-Jul-13 09:45N 41°20' E 002°09'0 1.7
2018-Jul-13 09:30N 41°21' E 002°09'2 4.2
2018-Jul-13 09:00N 41°19' E 002°11'1 2.0
2018-Jul-13 08:30N 41°20' E 002°11'0 0.0
2018-Jul-13 08:00N 41°20' E 002°11'0 0.0
2018-Jul-13 07:30N 41°20' E 002°11'0 0.0
2018-Jul-13 07:00N 41°20' E 002°11'0 0.0
2018-Jul-13 06:30N 41°20' E 002°11'0 0.0
2018-Jul-13 06:00N 41°20' E 002°11'0 0.0
2018-Jul-13 05:30N 41°20' E 002°11'0 0.0
2018-Jul-13 05:00N 41°20' E 002°11'0 0.0
2018-Jul-13 04:30N 41°20' E 002°11'0 0.0
2018-Jul-13 04:00N 41°20' E 002°11'0 0.0
2018-Jul-13 03:30N 41°20' E 002°11'0 0.0
2018-Jul-13 03:00N 41°20' E 002°11'0 0.0
2018-Jul-13 02:30N 41°20' E 002°11'0 0.0
2018-Jul-13 02:00N 41°20' E 002°11'0 0.0
2018-Jul-13 01:30N 41°20' E 002°11'0 0.0
2018-Jul-13 01:00N 41°20' E 002°11'0 0.0
2018-Jul-13 00:30N 41°20' E 002°11'0 0.0
2018-Jul-12 23:57N 41°20' E 002°11'0 0.0
2018-Jul-12 23:30N 41°20' E 002°11'0 0.0
2018-Jul-12 23:00N 41°20' E 002°11'0 0.0
2018-Jul-12 22:30N 41°20' E 002°11'0 0.0
2018-Jul-12 22:00N 41°20' E 002°11'0 0.0
2018-Jul-12 21:27N 41°20' E 002°11'0 0.0
2018-Jul-12 20:57N 41°20' E 002°11'0 0.0
2018-Jul-12 20:30N 41°20' E 002°11'0 0.0
2018-Jul-12 19:57N 41°20' E 002°11'0 0.0
2018-Jul-12 19:30N 41°20' E 002°11'0 0.0
2018-Jul-12 19:00N 41°20' E 002°11'0 0.0
2018-Jul-12 18:30N 41°20' E 002°11'0 0.0
2018-Jul-12 18:00N 41°20' E 002°11'0 0.0
2018-Jul-12 17:30N 41°20' E 002°11'0 0.0
2018-Jul-12 17:00N 41°20' E 002°11'0 0.0
2018-Jul-12 16:30N 41°20' E 002°11'0 0.0
2018-Jul-12 15:57N 41°20' E 002°11'0 0.0
2018-Jul-12 15:30N 41°20' E 002°11'0 0.1
2018-Jul-12 15:00N 41°20' E 002°11'0 0.0
2018-Jul-12 14:30N 41°20' E 002°11'0 0.0
2018-Jul-12 14:00N 41°20' E 002°11'0 0.0
2018-Jul-12 13:30N 41°20' E 002°11'0 0.0
2018-Jul-12 13:00N 41°20' E 002°11'0 0.0
2018-Jul-12 12:30N 41°20' E 002°11'0 0.0
2018-Jul-12 12:00N 41°20' E 002°11'0 0.0
2018-Jul-12 11:27N 41°20' E 002°11'0 0.0
2018-Jul-12 11:00N 41°20' E 002°11'0 0.0
2018-Jul-12 10:30N 41°20' E 002°11'0 0.0
2018-Jul-12 10:00N 41°20' E 002°11'0 0.0
2018-Jul-12 09:30N 41°20' E 002°11'0 0.0
2018-Jul-12 09:00N 41°20' E 002°11'0 0.0
2018-Jul-12 08:27N 41°20' E 002°11'0 0.0
2018-Jul-12 08:00N 41°20' E 002°11'0 0.0
2018-Jul-12 07:30N 41°20' E 002°11'0 0.0
2018-Jul-12 07:00N 41°20' E 002°11'0 0.0
2018-Jul-12 06:30N 41°20' E 002°11'0 0.0
2018-Jul-12 06:00N 41°20' E 002°11'0 0.0
2018-Jul-12 05:30N 41°20' E 002°11'0 0.0
2018-Jul-12 05:00N 41°20' E 002°11'0 0.0
2018-Jul-12 04:30N 41°20' E 002°11'0 0.0
2018-Jul-12 04:00N 41°20' E 002°11'0 0.0
2018-Jul-12 03:30N 41°20' E 002°11'0 0.0
2018-Jul-12 02:57N 41°20' E 002°11'0 0.0
2018-Jul-12 02:30N 41°20' E 002°11'0 0.0
2018-Jul-12 02:00N 41°20' E 002°11'0 0.0
2018-Jul-12 01:30N 41°20' E 002°11'0 0.0
2018-Jul-12 01:00N 41°20' E 002°11'0 0.0
2018-Jul-12 00:30N 41°20' E 002°11'0 0.0
2018-Jul-12 00:00N 41°20' E 002°11'0 0.0
2018-Jul-11 23:30N 41°20' E 002°11'0 0.1
2018-Jul-11 23:00N 41°20' E 002°11'0 0.0
2018-Jul-11 22:30N 41°20' E 002°11'0 0.0
2018-Jul-11 22:00N 41°20' E 002°11'0 0.0
2018-Jul-11 21:30N 41°20' E 002°11'0 0.0
2018-Jul-11 21:00N 41°20' E 002°11'0 0.0
2018-Jul-11 20:30N 41°20' E 002°11'0 0.0
2018-Jul-11 20:00N 41°20' E 002°11'0 0.2
2018-Jul-11 19:30N 41°20' E 002°12'0 0.2
2018-Jul-11 19:00N 41°20' E 002°12'0 0.1
2018-Jul-11 18:30N 41°20' E 002°12'0 0.1
2018-Jul-11 18:00N 41°20' E 002°12'0 0.1
2018-Jul-11 17:24N 41°20' E 002°11'0 0.1
2018-Jul-11 17:00N 41°20' E 002°11'0 0.1
2018-Jul-11 16:30N 41°20' E 002°11'0 0.1
2018-Jul-11 16:00N 41°20' E 002°11'0 0.1
2018-Jul-11 15:30N 41°20' E 002°11'0 0.0
2018-Jul-11 15:00N 41°20' E 002°11'0 0.1
2018-Jul-11 14:30N 41°20' E 002°11'0 0.0
2018-Jul-11 14:00N 41°20' E 002°11'0 0.1
2018-Jul-11 13:30N 41°20' E 002°11'0 0.1
2018-Jul-11 13:00N 41°20' E 002°11'0 0.0
2018-Jul-11 12:30N 41°20' E 002°11'0 0.0
2018-Jul-11 12:00N 41°20' E 002°11'0 0.1
2018-Jul-11 11:30N 41°20' E 002°11'0 0.0
2018-Jul-11 10:57N 41°20' E 002°11'0 0.1
2018-Jul-11 10:30N 41°20' E 002°11'0 0.0
2018-Jul-11 10:00N 41°20' E 002°11'0 0.0
2018-Jul-11 09:27N 41°20' E 002°11'0 0.0
2018-Jul-11 09:00N 41°20' E 002°11'0 0.0
2018-Jul-11 08:30N 41°20' E 002°11'0 0.0
2018-Jul-11 08:00N 41°20' E 002°11'0 0.0
2018-Jul-11 07:30N 41°20' E 002°11'0 0.0
2018-Jul-11 06:54N 41°20' E 002°11'0 0.0
2018-Jul-11 06:30N 41°20' E 002°11'0 0.0
2018-Jul-11 06:00N 41°20' E 002°11'0 0.0
2018-Jul-11 05:30N 41°20' E 002°11'0 0.0
2018-Jul-11 04:57N 41°20' E 002°11'0 0.0
2018-Jul-11 04:30N 41°20' E 002°11'0 0.0
2018-Jul-11 04:00N 41°20' E 002°11'0 0.0
2018-Jul-11 03:27N 41°20' E 002°11'0 0.0
2018-Jul-11 03:00N 41°20' E 002°11'0 0.1
2018-Jul-11 02:30N 41°20' E 002°11'0 0.1
2018-Jul-11 02:00N 41°20' E 002°12'0 0.0
2018-Jul-11 01:30N 41°20' E 002°12'0 0.0
2018-Jul-11 01:00N 41°20' E 002°12'0 0.0
2018-Jul-11 00:30N 41°20' E 002°12'0 0.0
2018-Jul-10 23:57N 41°20' E 002°12'0 0.0
2018-Jul-10 23:30N 41°20' E 002°12'0 0.0
2018-Jul-10 23:00N 41°20' E 002°12'0 0.1
2018-Jul-10 22:30N 41°20' E 002°12'0 0.0
2018-Jul-10 22:00N 41°20' E 002°12'0 0.0
2018-Jul-10 21:30N 41°20' E 002°12'0 0.0
2018-Jul-10 21:00N 41°20' E 002°12'0 0.0
2018-Jul-10 20:30N 41°20' E 002°12'0 0.0
2018-Jul-10 20:00N 41°20' E 002°12'0 0.0
2018-Jul-10 19:30N 41°20' E 002°12'0 0.0
2018-Jul-10 18:54N 41°20' E 002°12'0 0.0
2018-Jul-10 18:30N 41°20' E 002°12'0 0.0
2018-Jul-10 18:00N 41°20' E 002°12'0 0.0
2018-Jul-10 17:30N 41°20' E 002°12'0 0.0
2018-Jul-10 17:00N 41°20' E 002°12'0 0.0
2018-Jul-10 16:30N 41°20' E 002°12'0 0.0
2018-Jul-10 16:00N 41°20' E 002°12'0 0.0
2018-Jul-10 15:30N 41°20' E 002°12'0 0.0
2018-Jul-10 15:00N 41°20' E 002°12'0 0.0
2018-Jul-10 14:30N 41°20' E 002°12'0 0.0
2018-Jul-10 14:00N 41°20' E 002°12'0 0.0
2018-Jul-10 13:30N 41°20' E 002°12'0 0.0
2018-Jul-10 13:00N 41°20' E 002°12'0 0.0
2018-Jul-10 12:30N 41°20' E 002°12'0 0.0
2018-Jul-10 12:00N 41°20' E 002°12'0 0.0
2018-Jul-10 11:30N 41°20' E 002°12'0 0.0
2018-Jul-10 11:00N 41°20' E 002°12'0 0.0
2018-Jul-10 10:30N 41°20' E 002°12'0 0.0
2018-Jul-10 10:00N 41°20' E 002°12'0 0.0
2018-Jul-10 09:30N 41°20' E 002°11'0 0.0
2018-Jul-10 09:00N 41°20' E 002°11'0 0.1
2018-Jul-10 08:30N 41°20' E 002°11'0 0.1
2018-Jul-10 08:00N 41°20' E 002°11'0 0.0
2018-Jul-10 07:30N 41°20' E 002°11'0 0.0
2018-Jul-10 07:00N 41°20' E 002°11'0 0.0
2018-Jul-10 06:30N 41°20' E 002°11'0 0.0
2018-Jul-10 06:00N 41°20' E 002°11'0 0.0
2018-Jul-10 05:30N 41°20' E 002°11'0 0.5
2018-Jul-10 05:00N 41°20' E 002°11'3 6.9
2018-Jul-10 04:30N 41°17' E 002°14'510.6
2018-Jul-10 04:00N 41°14' E 002°20'712.5
2018-Jul-10 03:26N 41°11' E 002°28'4913.5
2018-Jul-09 23:47N 40°46' E 003°24'413.1
2018-Jul-09 23:30N 40°44' E 003°29'713.2
2018-Jul-09 23:00N 40°41' E 003°36'713.0
2018-Jul-09 22:30N 40°37' E 003°44'11213.0
2018-Jul-09 13:55N 39°44' E 005°52'  

Dump ship's entire track history